Terminal Aerodrome Forecast
Issued by NWS Northern Indiana

Home | Current Version | Previous Version | Text Only | Print | Product List | Glossary Off
Versions: 1 2 3 4 5 6 7 8 9 10 11 12 13 14 15 16 17 18

387
FTUS43 KIWX 212339
TAFFWA
TAF
KFWA 212339Z 2200/2224 18006KT P6SM SCT200
     FM220600 17004KT 5SM BR BKN120
     FM220900 VRB03KT 3/4SM BR OVC005
     FM221600 07006KT 2SM BR VCSH SCT008 BKN015
     FM221800 06011KT 6SM BR BKN025=

USA.gov is the U.S. government's official web portal to all federal, state and local government web resources and services.